Friday, December 19, 2014
08:39 UTC
  |  Log In   |  Register Free
Airport Search:

Pedro Bay Airport
(4K0)

Pedro Bay Airport Diagram
No Airport Diagram Available

FAA data valid effective November 13, 2014 - January 08, 2015 (unless otherwise noted).

 
 
 
 
 
 
 
 
 
 
 
 
 
 

Current Aviation Weather for Pedro Bay Airport (4K0)

METAR data is unavailable for 4K0. The nearest METAR location is at PAIL (23.7 nm SW from 4K0).

The most recent METAR observation for PAIL was updated at: 2132
METAR Summary (Translated METAR)
PAIL
182053Z 36010KT 10SM CLR 01/M04 A2938 RMK AO2 SLP950 T00111039 58014
(23.7 nm SW from 4K0)
PAIL
182053Z 36010KT 10SM CLR 01/M04 A2938 RMK AO2 SLP950 T00111039 58014
(23.7 nm SW from 4K0)
TAF Summary (Translated TAF)
PAIL
190531Z 1906/2006 36008KT P6SM BKN080
PAIL
190531Z 1906/2006 36008KT P6SM BKN080
  Airport Weather Conditions for 4K0

Current weather conditions are
not available for 4K0


The nearest NOAA weather station
is at ILI, (23.7 nm SW from 4K0)
  
 Current Weather at ILI
27° F
Fair
North winds at 6.9 mph
ILI NOAA Radar

Pressure: 29.18 in
Humidity: 75%
Wind: North at 6.9 MPH (6 KT)
Dew Point: 19.9°F
Visibility: 10.00 mi


Airport Weather Forecast for 4K0

Translated METAR and TAF for PAIL
Translated METAR for PAIL (0840 UTC 19 December 2014)
found at http://aviationweather.gov/adds/metars/
 
METAR text: PAIL 190753Z AUTO 35006KT 10SM CLR M03/M07 A2918 RMK AO2 SLP885 T10281067 TSNO
Conditions at: PAIL (ILIAMNA , AK, US) observed 0753 UTC 19 December 2014
Temperature: -2.8°C (27°F)
Dewpoint: -6.7°C (20°F) [RH = 74%]
Pressure (altimeter): 29.18 inches Hg (988.2 mb)
[Sea-level pressure: 988.5 mb]
Winds: from the N (350 degrees) at 7 MPH (6 knots; 3.1 m/s)
Visibility: 10 or more miles (16+ km)
Ceiling: at least 12,000 feet AGL
Clouds: sky clear below 12,000 feet AGL
Weather: automated observation with no human augmentation;
there may or may not be significant weather present at this time
Translated TAF for PAIL
Forecast for: PAIL (ILIAMNA , AK, US)
TAF Text: PAIL 190531Z 1906/2006 36008KT P6SM BKN080
Forecast period: 0600 UTC 19 December 2014 to 0600 UTC 20 December 2014
Forecast type: FROM: standard forecast or significant change
Winds: from the N (360 degrees) at 9 MPH (8 knots; 4.2 m/s)
Visibility: 6 or more miles (10+ km)
Ceiling: 8000 feet AGL
Clouds: broken clouds at 8000 feet AGL
Weather: no significant weather forecast for this period

Find All Airport Services Find A Hotel Find A Rental Car Find A Golf Course Find A Restaurant $100 Hamburger



FBO's on the Field
FBO Company Facility Photos Services Transportation Aviation Fuel Prices: Prices include tax
Catering Weather Repair Courtesy Rental Type 100LL JetA JetA+ MOGAS 8087
 
Add another FBO Facility Photos Catering Weather Repair Courtesy Rental Type 100LL JetA JetA+ MOGAS 8087
Services Transportation Aviation Fuel Prices: Prices include tax
There are no FBO's currently reporting fuel at 4K0. List your FBO now


model-print
model-print
model-print
model-print